createdAt,value
2019-03-05T00:01:30.736Z,55.68
2019-03-05T00:04:00.002Z,55.63
2019-03-05T00:06:29.278Z,57.94
2019-03-05T00:08:58.523Z,55.80
2019-03-05T00:11:27.747Z,56.81
2019-03-05T00:13:57.012Z,57.24
2019-03-05T00:16:26.337Z,57.00
2019-03-05T00:18:55.554Z,56.16
2019-03-05T00:21:24.845Z,55.83
2019-03-05T00:23:56.616Z,57.04
2019-03-05T00:30:29.269Z,56.74
2019-03-05T00:33:32.575Z,57.31
2019-03-05T00:36:35.329Z,56.66
2019-03-05T00:39:43.858Z,57.30
2019-03-05T00:42:58.171Z,54.86
2019-03-05T00:46:11.584Z,55.08
2019-03-05T00:49:31.770Z,56.39
2019-03-05T00:52:38.097Z,55.97
2019-03-05T00:59:30.676Z,56.43
2019-03-05T01:06:31.649Z,55.81
2019-03-05T01:09:33.841Z,56.14
2019-03-05T01:12:33.183Z,56.15
2019-03-05T01:15:32.190Z,55.29
2019-03-05T01:18:31.264Z,57.15
2019-03-05T01:21:00.555Z,55.72
2019-03-05T01:23:32.660Z,55.58
2019-03-05T01:26:31.745Z,55.28
2019-03-05T01:29:30.543Z,55.54
2019-03-05T01:32:29.670Z,56.33
2019-03-05T01:35:31.694Z,56.08
2019-03-05T01:38:00.915Z,55.93
2019-03-05T01:40:35.993Z,55.45
2019-03-05T01:43:32.063Z,54.54
2019-03-05T01:46:01.297Z,55.12
2019-03-05T01:48:30.563Z,53.28
2019-03-05T01:50:59.833Z,53.49
2019-03-05T01:53:35.000Z,54.21
2019-03-05T01:58:51.220Z,53.08
2019-03-05T02:01:35.419Z,55.21
2019-03-05T02:06:51.965Z,54.14
2019-03-05T02:09:21.223Z,52.94
2019-03-05T02:11:50.457Z,54.10
2019-03-05T02:14:19.728Z,54.69
2019-03-05T02:16:48.971Z,54.71
2019-03-05T02:19:40.462Z,56.22
2019-03-05T02:22:15.762Z,57.16
2019-03-05T02:25:23.972Z,56.74
2019-03-05T02:28:39.633Z,57.51
2019-03-05T02:31:55.618Z,57.97
2019-03-05T02:34:37.753Z,56.97
2019-03-05T02:37:48.373Z,56.17
2019-03-05T02:41:29.330Z,55.73
2019-03-05T02:44:31.620Z,55.64
2019-03-05T02:47:51.358Z,55.13
2019-03-05T02:50:51.584Z,55.42
2019-03-05T02:54:04.700Z,57.30
2019-03-05T02:56:56.066Z,57.53
2019-03-05T02:59:25.313Z,56.56
2019-03-05T03:02:16.714Z,57.86
2019-03-05T03:04:48.462Z,58.03
2019-03-05T03:07:17.719Z,58.53
2019-03-05T03:10:35.128Z,58.87
2019-03-05T03:13:04.375Z,58.09
2019-03-05T03:15:33.638Z,57.02
2019-03-05T03:18:03.003Z,58.03
2019-03-05T03:20:32.226Z,58.04
2019-03-05T03:23:01.484Z,58.60
2019-03-05T03:25:30.716Z,58.52
2019-03-05T03:27:59.970Z,59.23
2019-03-05T03:30:29.477Z,60.08
2019-03-05T03:32:58.813Z,59.13
2019-03-05T03:35:28.036Z,59.44
2019-03-05T03:37:57.336Z,60.34
2019-03-05T03:40:26.645Z,59.62
2019-03-05T03:42:56.199Z,59.70
2019-03-05T03:45:26.292Z,58.97
2019-03-05T03:47:55.649Z,59.15
2019-03-05T03:50:24.954Z,58.13
2019-03-05T03:52:54.194Z,58.89
2019-03-05T03:55:23.457Z,58.52
2019-03-05T03:57:52.790Z,59.91
2019-03-05T04:00:23.405Z,58.94
2019-03-05T04:02:53.015Z,58.52
2019-03-05T04:05:22.218Z,57.82
2019-03-05T04:07:51.441Z,58.23
2019-03-05T04:10:20.765Z,58.21
2019-03-05T04:12:50.036Z,58.68
2019-03-05T04:15:20.602Z,56.60
2019-03-05T04:17:49.848Z,56.70
2019-03-05T04:20:26.921Z,57.42
2019-03-05T04:22:56.171Z,57.16
2019-03-05T04:25:25.433Z,57.39
2019-03-05T04:27:54.699Z,57.96
2019-03-05T04:30:24.013Z,56.76
2019-03-05T04:32:53.278Z,59.10
2019-03-05T04:35:22.581Z,58.24
2019-03-05T04:37:51.789Z,59.35
2019-03-05T04:40:21.001Z,58.75
2019-03-05T05:23:33.601Z,56.68
2019-03-05T05:26:02.843Z,57.50
2019-03-05T05:28:32.063Z,58.01
2019-03-05T05:31:01.305Z,58.03
2019-03-05T05:33:30.530Z,57.89
2019-03-05T05:35:59.792Z,58.70
2019-03-05T05:38:29.022Z,57.85
2019-03-05T05:40:58.346Z,57.45
2019-03-05T05:43:29.739Z,57.60
2019-03-05T05:45:58.957Z,58.38
2019-03-05T05:48:28.231Z,58.09
2019-03-05T05:50:57.547Z,57.56
2019-03-05T05:53:26.834Z,58.60
2019-03-05T05:55:56.117Z,58.16
2019-03-05T05:58:25.407Z,57.86
2019-03-05T06:00:56.498Z,57.84
2019-03-05T06:03:25.746Z,57.99
2019-03-05T06:05:55.045Z,57.68
2019-03-05T06:08:24.264Z,56.30
2019-03-05T06:10:53.531Z,56.46
2019-03-05T06:13:22.916Z,56.63
2019-03-05T06:15:52.166Z,59.01
2019-03-05T06:18:21.462Z,58.66
2019-03-05T06:20:50.714Z,57.79
2019-03-05T06:23:19.978Z,58.33
2019-03-05T06:25:49.222Z,57.45
2019-03-05T06:28:18.482Z,58.20
2019-03-05T06:30:47.787Z,58.12
2019-03-05T06:33:17.058Z,58.12
2019-03-05T06:35:46.295Z,57.82
2019-03-05T06:38:15.593Z,57.61
2019-03-05T06:40:44.884Z,58.52
2019-03-05T06:43:14.159Z,59.85
2019-03-05T06:45:43.415Z,58.30
2019-03-05T06:48:12.715Z,57.82
2019-03-05T06:50:42.019Z,59.06
2019-03-05T06:53:11.359Z,58.12
2019-03-05T06:55:40.705Z,57.29
2019-03-05T06:58:11.864Z,57.62
2019-03-05T07:00:41.116Z,56.83
2019-03-05T07:03:10.540Z,56.72
2019-03-05T07:06:15.272Z,57.70
2019-03-05T07:08:58.933Z,56.64
2019-03-05T07:11:52.784Z,58.14
2019-03-05T07:14:33.993Z,56.90
2019-03-05T07:17:14.611Z,58.03
2019-03-05T07:19:58.308Z,56.82
2019-03-05T07:23:09.299Z,56.81
2019-03-05T07:25:38.590Z,57.42
2019-03-05T07:28:07.818Z,57.68
2019-03-05T07:30:37.124Z,57.60
2019-03-05T07:33:06.573Z,57.92
2019-03-05T07:35:36.031Z,58.45
2019-03-05T07:38:05.611Z,59.30
2019-03-05T07:40:34.866Z,58.08
2019-03-05T07:43:04.691Z,58.97
2019-03-05T07:45:33.949Z,58.83
2019-03-05T07:48:03.190Z,59.08
2019-03-05T07:50:32.492Z,59.43
2019-03-05T07:53:01.745Z,59.20
2019-03-05T07:55:31.043Z,59.20
2019-03-05T07:58:00.318Z,59.98
2019-03-05T08:00:29.610Z,59.05
2019-03-05T08:02:58.857Z,59.14
2019-03-05T08:05:28.128Z,59.85
2019-03-05T08:08:26.362Z,59.55
2019-03-05T08:10:47.442Z,59.89
2019-03-05T08:13:28.851Z,60.71
2019-03-05T08:16:33.148Z,58.59
2019-03-05T08:19:02.408Z,58.86
2019-03-05T08:21:31.810Z,58.46
2019-03-05T08:24:01.084Z,57.33
2019-03-05T08:26:30.369Z,59.05
2019-03-05T08:28:59.683Z,59.27
2019-03-05T08:31:28.972Z,58.45
2019-03-05T08:33:58.217Z,58.21
2019-03-05T08:36:27.500Z,57.88
2019-03-05T08:38:56.806Z,56.85
2019-03-05T08:41:26.055Z,57.65
2019-03-05T08:43:55.326Z,57.68
2019-03-05T08:46:24.558Z,58.65
2019-03-05T08:48:53.823Z,56.46
2019-03-05T08:51:23.085Z,55.40
2019-03-05T08:53:52.382Z,56.60
2019-03-05T08:56:21.607Z,56.21
2019-03-05T08:58:50.902Z,56.09
2019-03-05T09:04:34.033Z,53.94
2019-03-05T09:07:33.046Z,55.45
2019-03-05T09:10:32.241Z,55.14
2019-03-05T09:13:32.954Z,56.45
2019-03-05T09:16:32.484Z,55.60
2019-03-05T09:19:31.570Z,55.68
2019-03-05T09:22:33.509Z,55.30
2019-03-05T09:25:32.429Z,54.22
2019-03-05T09:40:44.324Z,53.79
2019-03-05T09:43:31.446Z,54.08
2019-03-05T09:46:33.744Z,52.86
2019-03-05T09:49:32.914Z,52.09
2019-03-05T09:52:32.172Z,51.92
2019-03-05T09:55:37.152Z,53.91
2019-03-05T09:58:32.944Z,53.05
2019-03-05T10:01:32.142Z,52.73
2019-03-05T10:04:34.251Z,52.15
2019-03-05T10:07:33.073Z,50.96
2019-03-05T10:10:32.443Z,51.02
2019-03-05T10:13:34.422Z,49.80
2019-03-05T10:16:36.295Z,50.24
2019-03-05T10:19:32.270Z,50.62
2019-03-05T10:22:31.474Z,50.67
2019-03-05T10:25:33.766Z,50.77
2019-03-05T10:28:33.894Z,50.09
2019-03-05T10:34:35.198Z,48.58
2019-03-05T10:37:31.411Z,48.53
2019-03-05T10:40:00.714Z,48.18
2019-03-05T10:42:33.157Z,46.82
2019-03-05T10:45:02.562Z,46.84
2019-03-05T10:47:31.892Z,46.62
2019-03-05T10:50:01.207Z,46.36
2019-03-05T10:52:30.542Z,46.17
2019-03-05T10:54:59.865Z,48.10
2019-03-05T10:57:29.154Z,47.63
2019-03-05T10:59:58.499Z,46.58
2019-03-05T11:02:27.830Z,47.72
2019-03-05T11:04:57.128Z,49.80
2019-03-05T11:07:26.482Z,49.60
2019-03-05T11:09:55.952Z,50.96
2019-03-05T11:12:25.206Z,49.18
2019-03-05T11:14:54.468Z,49.05
2019-03-05T11:17:23.765Z,49.32
2019-03-05T11:19:53.040Z,50.15
2019-03-05T11:22:22.321Z,48.13
2019-03-05T11:24:51.641Z,49.94
2019-03-05T11:27:20.997Z,49.94
2019-03-05T11:29:50.289Z,48.83
2019-03-05T11:32:19.547Z,48.95
2019-03-05T11:34:48.848Z,48.62
2019-03-05T11:37:18.743Z,46.81
2019-03-05T11:39:48.087Z,47.45
2019-03-05T11:42:17.353Z,47.99
2019-03-05T11:44:58.840Z,46.25
2019-03-05T11:47:17.730Z,46.64
2019-03-05T11:49:47.047Z,46.53
2019-03-05T11:52:16.359Z,45.28
2019-03-05T11:54:45.633Z,47.19
2019-03-05T11:57:14.882Z,45.47
2019-03-05T11:59:44.181Z,43.72
2019-03-05T12:02:21.424Z,44.31
2019-03-05T12:04:44.482Z,42.88
2019-03-05T12:07:13.793Z,42.71
2019-03-05T12:09:43.048Z,44.33
2019-03-05T12:12:12.371Z,45.69
2019-03-05T12:14:41.626Z,45.71
2019-03-05T12:17:11.019Z,46.13
2019-03-05T12:19:40.313Z,45.26
2019-03-05T12:22:09.637Z,46.07
2019-03-05T12:24:38.992Z,44.92
2019-03-05T12:27:08.310Z,44.26
2019-03-05T12:29:37.627Z,41.90
2019-03-05T12:32:06.881Z,43.83
2019-03-05T12:34:36.179Z,44.09
2019-03-05T12:37:05.435Z,43.71
2019-03-05T12:39:34.719Z,45.15
2019-03-05T12:42:03.997Z,44.62
2019-03-05T12:44:33.285Z,44.34
2019-03-05T12:47:02.929Z,44.41
2019-03-05T12:49:32.212Z,45.29
2019-03-05T12:52:01.523Z,45.34
2019-03-05T12:54:30.763Z,46.23
2019-03-05T12:57:00.080Z,45.58
2019-03-05T12:59:29.329Z,45.40
2019-03-05T13:01:58.615Z,44.78
2019-03-05T13:04:27.888Z,43.94
2019-03-05T13:06:57.293Z,42.85
2019-03-05T13:09:26.557Z,42.17
2019-03-05T13:11:55.829Z,43.21
2019-03-05T13:14:25.067Z,41.83
2019-03-05T13:24:29.703Z,42.44
2019-03-05T13:45:30.633Z,40.02
2019-03-05T13:48:35.074Z,38.50
2019-03-05T14:06:29.456Z,40.12
2019-03-05T14:22:34.236Z,39.84
2019-03-05T14:25:33.397Z,39.65
2019-03-05T14:28:32.597Z,40.30
2019-03-05T14:31:31.729Z,41.34
2019-03-05T14:34:33.989Z,41.81
2019-03-05T14:37:33.445Z,40.95
2019-03-05T14:40:32.641Z,42.43
2019-03-05T14:43:31.905Z,42.22
2019-03-05T14:55:33.816Z,40.34
2019-03-05T14:58:33.010Z,39.37
2019-03-05T15:01:32.088Z,38.89
2019-03-05T15:20:39.007Z,40.37
2019-03-05T15:23:32.038Z,39.48
2019-03-05T15:26:34.111Z,38.56
2019-03-05T15:29:33.171Z,39.24
2019-03-05T15:34:49.810Z,39.62
2019-03-05T15:37:34.476Z,40.09
2019-03-05T15:40:04.143Z,39.35
2019-03-05T15:42:33.484Z,40.23
2019-03-05T15:45:03.018Z,39.44
2019-03-05T15:47:32.399Z,40.40
2019-03-05T15:50:01.690Z,39.97
2019-03-05T15:52:31.114Z,40.30
2019-03-05T15:55:00.450Z,40.18
2019-03-05T15:57:29.793Z,41.24
2019-03-05T15:59:59.122Z,41.45
2019-03-05T16:02:28.484Z,41.09
2019-03-05T16:04:57.783Z,40.19
2019-03-05T16:07:27.147Z,40.66
2019-03-05T16:09:56.453Z,39.98
2019-03-05T16:12:25.796Z,40.30
2019-03-05T16:14:55.172Z,41.73
2019-03-05T16:17:27.983Z,41.79
2019-03-05T16:19:55.544Z,41.08
2019-03-05T16:22:24.905Z,41.12
2019-03-05T16:24:54.246Z,41.15
2019-03-05T16:27:23.606Z,42.13
2019-03-05T16:29:55.846Z,41.27
2019-03-05T16:32:34.920Z,41.72
2019-03-05T16:35:18.456Z,41.89
2019-03-05T16:38:18.714Z,42.78
2019-03-05T16:41:09.241Z,42.53
2019-03-05T16:43:48.106Z,42.01
2019-03-05T16:46:42.545Z,42.20
2019-03-05T16:49:31.074Z,42.08
2019-03-05T16:52:14.988Z,43.73
2019-03-05T16:54:52.900Z,43.50
2019-03-05T16:57:47.034Z,43.46
2019-03-05T17:00:48.760Z,43.91
2019-03-05T17:03:17.447Z,44.28
2019-03-05T17:05:59.964Z,44.60
2019-03-05T17:09:06.352Z,44.20
2019-03-05T17:11:53.111Z,45.25
2019-03-05T17:14:22.526Z,45.23
2019-03-05T17:16:51.911Z,45.48
2019-03-05T17:19:21.217Z,45.26
2019-03-05T17:21:52.292Z,44.77
2019-03-05T17:24:21.697Z,45.77
2019-03-05T17:26:51.056Z,45.79
2019-03-05T17:29:20.356Z,45.61
2019-03-05T17:32:30.996Z,45.56
2019-03-05T17:35:00.338Z,46.03
2019-03-05T17:37:29.631Z,46.44
2019-03-05T17:39:59.020Z,45.20
2019-03-05T17:42:28.356Z,44.79
2019-03-05T17:44:57.685Z,46.51
2019-03-05T17:47:27.003Z,44.89
2019-03-05T17:49:56.451Z,45.34
2019-03-05T17:52:25.896Z,45.69
2019-03-05T17:54:55.232Z,45.27
2019-03-05T17:57:24.599Z,46.36
2019-03-05T17:59:53.864Z,45.61
2019-03-05T18:02:23.267Z,46.26
2019-03-05T18:04:52.581Z,45.67
2019-03-05T18:07:21.896Z,45.97
2019-03-05T18:09:51.207Z,46.79
2019-03-05T18:12:20.748Z,46.41
2019-03-05T18:14:50.263Z,46.70
2019-03-05T18:17:19.579Z,45.22
2019-03-05T18:19:49.005Z,44.89
2019-03-05T18:22:18.317Z,44.82
2019-03-05T18:24:47.600Z,45.05
2019-03-05T18:27:17.179Z,44.41
2019-03-05T18:29:46.507Z,44.80
2019-03-05T18:32:15.895Z,44.60
2019-03-05T18:34:45.348Z,44.33
2019-03-05T18:37:14.634Z,44.81
2019-03-05T18:39:44.146Z,44.65
2019-03-05T18:42:13.600Z,44.65
2019-03-05T18:44:43.140Z,43.79
2019-03-05T18:47:12.493Z,43.41
2019-03-05T18:49:46.033Z,46.04
2019-03-05T18:52:18.415Z,46.12
2019-03-05T18:54:47.882Z,47.15
2019-03-05T18:57:19.824Z,47.79
2019-03-05T18:59:49.630Z,48.32
2019-03-05T19:02:19.109Z,48.55
2019-03-05T19:04:48.520Z,48.43
2019-03-05T19:07:19.396Z,48.08
2019-03-05T19:09:53.168Z,48.76
2019-03-05T19:12:22.993Z,49.30
2019-03-05T19:14:52.779Z,49.48
2019-03-05T19:17:23.903Z,50.62
2019-03-05T19:19:54.716Z,50.24
2019-03-05T19:22:27.947Z,50.65
2019-03-05T19:25:00.317Z,50.09
2019-03-05T19:27:29.842Z,51.64
2019-03-05T19:29:59.446Z,50.72
2019-03-05T19:32:29.074Z,50.77
2019-03-05T19:35:03.573Z,50.61
2019-03-05T19:37:33.130Z,50.92
2019-03-05T19:40:05.148Z,51.55
2019-03-05T19:42:34.579Z,51.63
2019-03-05T19:45:04.516Z,51.36
2019-03-05T19:47:34.126Z,51.02
2019-03-05T19:50:08.257Z,52.71
2019-03-05T19:52:37.749Z,52.34
2019-03-05T19:55:10.164Z,52.74
2019-03-05T19:57:39.634Z,53.61
2019-03-05T20:00:13.107Z,52.57
2019-03-05T20:02:42.544Z,51.76
2019-03-05T20:05:13.215Z,51.93
2019-03-05T20:07:42.916Z,52.54
2019-03-05T20:10:14.607Z,52.87
2019-03-05T20:12:44.382Z,50.64
2019-03-05T20:15:17.526Z,51.07
2019-03-05T20:17:47.550Z,50.04
2019-03-05T20:20:18.819Z,50.32
2019-03-05T20:22:50.873Z,50.89
2019-03-05T20:25:20.496Z,50.83
2019-03-05T20:27:51.241Z,49.03
2019-03-05T20:30:21.245Z,49.64
2019-03-05T20:32:50.593Z,49.64
2019-03-05T20:35:20.228Z,48.68
2019-03-05T20:37:49.600Z,47.74
2019-03-05T20:40:19.627Z,54.22
2019-03-05T20:42:49.287Z,55.25
2019-03-05T20:45:21.710Z,55.88
2019-03-05T20:47:51.244Z,56.23
2019-03-05T20:50:20.676Z,55.30
2019-03-05T20:52:50.252Z,55.46
2019-03-05T20:55:19.759Z,55.70
2019-03-05T20:57:49.227Z,55.61
2019-03-05T21:00:23.251Z,55.91
2019-03-05T21:02:52.946Z,56.21
2019-03-05T21:05:22.378Z,55.62
2019-03-05T21:07:51.808Z,55.77
2019-03-05T21:10:21.354Z,56.44
2019-03-05T21:12:50.788Z,56.04
2019-03-05T21:15:20.111Z,55.07
2019-03-05T21:17:49.590Z,55.34
2019-03-05T21:20:18.952Z,55.20
2019-03-05T21:22:48.282Z,54.82
2019-03-05T21:25:17.859Z,55.34
2019-03-05T21:27:47.673Z,55.05
2019-03-05T21:30:18.424Z,55.32
2019-03-05T21:32:48.057Z,54.62
2019-03-05T21:35:17.435Z,55.15
2019-03-05T21:37:47.186Z,55.93
2019-03-05T21:40:21.415Z,55.56
2019-03-05T21:42:50.827Z,55.73
2019-03-05T21:45:26.535Z,56.52
2019-03-05T21:47:56.073Z,55.43
2019-03-05T21:50:27.571Z,56.34
2019-03-05T21:52:57.134Z,55.68
2019-03-05T21:55:26.719Z,56.50
2019-03-05T21:57:58.408Z,57.37
2019-03-05T22:00:29.085Z,56.82
2019-03-05T22:02:59.382Z,55.56
2019-03-05T22:05:28.935Z,55.28
2019-03-05T22:07:58.450Z,56.37
2019-03-05T22:10:28.209Z,56.65
2019-03-05T22:12:57.483Z,56.10
2019-03-05T22:15:27.163Z,56.33
2019-03-05T22:17:56.639Z,56.90
2019-03-05T22:20:26.315Z,57.08
2019-03-05T22:22:55.629Z,57.11
2019-03-05T22:25:24.908Z,57.36
2019-03-05T22:27:54.322Z,58.00
2019-03-05T22:30:25.509Z,57.23
2019-03-05T22:32:54.811Z,57.40
2019-03-05T22:35:24.401Z,57.30
2019-03-05T22:37:53.720Z,56.54
2019-03-05T22:40:23.706Z,56.39
2019-03-05T22:42:53.022Z,55.27
2019-03-05T22:45:23.424Z,55.09
2019-03-05T22:47:52.836Z,55.65
2019-03-05T22:50:22.201Z,55.65
2019-03-05T22:52:51.770Z,54.52
2019-03-05T22:55:21.042Z,54.38
2019-03-05T22:57:50.344Z,54.64
2019-03-05T23:00:54.312Z,56.28
2019-03-05T23:03:23.629Z,56.64
2019-03-05T23:05:53.072Z,56.03
2019-03-05T23:08:22.845Z,56.13
2019-03-05T23:10:52.131Z,55.51
2019-03-05T23:13:21.825Z,57.21
2019-03-05T23:15:51.075Z,57.50
2019-03-05T23:18:20.650Z,56.66
2019-03-05T23:20:49.961Z,56.81
2019-03-05T23:23:20.466Z,56.71
2019-03-05T23:25:49.861Z,56.54
2019-03-05T23:28:19.275Z,56.85
2019-03-05T23:30:48.526Z,55.57
2019-03-05T23:33:18.083Z,56.34
2019-03-05T23:35:47.328Z,55.33
2019-03-05T23:38:16.604Z,55.91
2019-03-05T23:40:45.870Z,56.73
2019-03-05T23:43:15.164Z,56.53
2019-03-05T23:45:44.464Z,57.46
2019-03-05T23:48:13.834Z,56.44
2019-03-05T23:50:43.095Z,55.89
2019-03-05T23:53:12.742Z,57.24
2019-03-05T23:55:42.007Z,57.99
2019-03-05T23:58:11.269Z,58.76
